createdAt,value
2023-01-27T12:47:49.974Z,30.5
2023-01-27T12:49:13.629Z,31.9
2023-01-27T12:50:41.628Z,32.4
2023-01-27T12:52:03.467Z,29.7
2023-01-27T12:53:30.716Z,33.5
2023-01-27T12:54:52.300Z,35.4
2023-01-27T12:56:13.914Z,33.8
2023-01-27T12:57:39.660Z,34.8
2023-01-27T12:59:01.548Z,35.9
2023-01-27T13:00:31.807Z,34.7
2023-01-27T13:02:08.274Z,45.4
2023-01-27T13:03:34.702Z,40.2
2023-01-27T13:04:55.468Z,39.1
2023-01-27T13:06:27.916Z,34.3
2023-01-27T13:08:06.148Z,31.6
2023-01-27T13:09:33.976Z,33.7
2023-01-27T13:11:10.121Z,31
2023-01-27T13:12:30.384Z,34.5
2023-01-27T13:13:58.117Z,33.2
2023-01-27T13:15:27.268Z,31.1
2023-01-27T13:16:51.406Z,33.9
2023-01-27T13:18:06.000Z,26.8
2023-01-27T13:19:35.896Z,29.3
2023-01-27T13:20:56.445Z,31.2
2023-01-27T13:22:21.500Z,30.3
2023-01-27T13:23:42.202Z,29.3
2023-01-27T13:24:55.944Z,30.6
2023-01-27T13:26:14.395Z,29.5
2023-01-27T13:27:33.407Z,30.8
2023-01-27T13:28:52.568Z,28.1
2023-01-27T13:30:13.105Z,28.2
2023-01-27T13:31:35.341Z,26.5
2023-01-27T13:32:55.343Z,26.6
2023-01-27T13:34:12.236Z,29
2023-01-27T13:35:35.600Z,28.9
2023-01-27T13:36:52.188Z,25.6
2023-01-27T13:38:12.754Z,27.8
2023-01-27T13:39:37.063Z,29.6
2023-01-27T13:41:13.688Z,27.8
2023-01-27T13:42:40.174Z,30.6
2023-01-27T13:44:00.695Z,30.4
2023-01-27T13:45:17.543Z,29.1
2023-01-27T13:46:35.403Z,30.6
2023-01-27T13:47:47.684Z,30.2
2023-01-27T13:49:15.791Z,28.3
2023-01-27T13:50:35.552Z,30.3
2023-01-27T13:51:53.525Z,31.6
2023-01-27T13:53:09.145Z,29.8
2023-01-27T13:54:25.201Z,30.6
2023-01-27T13:55:38.479Z,31.6
2023-01-27T13:56:52.044Z,28.9
2023-01-27T13:58:17.995Z,31.5
2023-01-27T13:59:43.536Z,27
2023-01-27T14:01:08.993Z,27.9
2023-01-27T14:02:31.708Z,28.8
2023-01-27T14:04:02.197Z,28.4
2023-01-27T14:05:26.739Z,32
2023-01-27T14:06:50.404Z,31.6
2023-01-27T14:08:11.645Z,32
2023-01-27T14:09:32.996Z,30.2
2023-01-27T14:10:50.660Z,28.8
2023-01-27T14:12:07.617Z,29
2023-01-27T14:13:27.824Z,29.5
2023-01-27T14:14:49.200Z,27.1
2023-01-27T14:15:53.923Z,28.3
2023-01-27T14:17:13.948Z,27.8
2023-01-27T14:18:32.880Z,28.4
2023-01-27T14:19:58.613Z,26
2023-01-27T14:21:39.482Z,27.3
2023-01-27T14:22:45.561Z,26
2023-01-27T14:24:02.391Z,26.1
2023-01-27T14:25:23.939Z,26.3
2023-01-27T14:26:41.411Z,25.1
2023-01-27T14:27:59.973Z,25.8
2023-01-27T14:29:19.860Z,25.4
2023-01-27T14:30:36.974Z,27.2
2023-01-27T14:31:55.912Z,26.6
2023-01-27T14:33:17.115Z,25.4
2023-01-27T14:34:40.766Z,25.4
2023-01-27T14:36:09.581Z,24.9
2023-01-27T14:37:32.604Z,25
2023-01-27T14:38:52.209Z,25.5
2023-01-27T14:40:05.409Z,24.9
2023-01-27T14:41:29.057Z,26
2023-01-27T14:42:55.892Z,24
2023-01-27T14:44:33.737Z,24.2
2023-01-27T14:45:52.528Z,25.3
2023-01-27T14:47:13.078Z,25.9
2023-01-27T14:48:28.410Z,26.3
2023-01-27T14:49:43.535Z,27
2023-01-27T14:51:02.314Z,25.5
2023-01-27T14:52:16.612Z,22.9
2023-01-27T14:53:32.893Z,22.9
2023-01-27T14:54:53.460Z,25.1
2023-01-27T14:56:11.434Z,23.1
2023-01-27T14:57:30.305Z,25.3
2023-01-27T14:58:48.832Z,23.4
2023-01-27T14:59:59.312Z,24.9
2023-01-27T15:01:19.224Z,25.7
2023-01-27T15:02:38.577Z,25.1
2023-01-27T15:03:51.175Z,24.6
2023-01-27T15:05:12.035Z,25.3
2023-01-27T15:06:26.095Z,22.6
2023-01-27T15:07:41.769Z,23.5
2023-01-27T15:09:02.624Z,23.1
2023-01-27T15:10:23.165Z,23.6
2023-01-27T15:11:34.307Z,21.9
2023-01-27T15:12:47.206Z,21.7
2023-01-27T15:14:03.105Z,22.8
2023-01-27T15:15:21.663Z,21.5
2023-01-27T15:16:36.508Z,20
2023-01-27T15:17:54.554Z,20.5
2023-01-27T15:19:09.704Z,19.7
2023-01-27T15:20:20.276Z,21.2
2023-01-27T15:21:35.286Z,21.6
2023-01-27T15:22:53.973Z,21.9
2023-01-27T15:24:11.362Z,21.5
2023-01-27T15:25:23.794Z,23.5
2023-01-27T15:26:34.622Z,23.7
2023-01-27T15:27:42.132Z,23.3
2023-01-27T15:29:00.044Z,22.5
2023-01-27T15:30:07.799Z,24.5
2023-01-27T15:31:20.474Z,24.5
2023-01-27T15:32:31.226Z,26.4
2023-01-27T15:33:39.139Z,26.6
2023-01-27T15:34:51.505Z,24.2
2023-01-27T15:36:09.046Z,25
2023-01-27T15:37:25.513Z,23.1
2023-01-27T15:38:32.849Z,24.4
2023-01-27T15:39:43.447Z,22.9
2023-01-27T15:40:55.604Z,24.6
2023-01-27T15:42:05.568Z,24.5
2023-01-27T15:43:13.415Z,23.2
2023-01-27T15:44:21.072Z,25
2023-01-27T15:45:28.844Z,25.3
2023-01-27T15:46:37.171Z,24.3
2023-01-27T15:47:47.663Z,25.3
2023-01-27T15:48:55.836Z,23.5
2023-01-27T15:50:04.655Z,22.2
2023-01-27T15:51:15.153Z,22.6
2023-01-27T15:52:23.160Z,24.3
2023-01-27T15:53:34.295Z,21.3
2023-01-27T15:54:43.372Z,21.2
2023-01-27T15:55:50.356Z,21.2
2023-01-27T15:56:57.527Z,20.9
2023-01-27T15:58:08.250Z,21.6
2023-01-27T15:59:23.497Z,20.6
2023-01-27T16:00:30.674Z,22.1
2023-01-27T16:01:38.145Z,23.2
2023-01-27T16:02:45.355Z,20.9
2023-01-27T16:03:53.111Z,23.9
2023-01-27T16:05:09.134Z,22.9
2023-01-27T16:06:20.389Z,21.8
2023-01-27T16:07:28.419Z,21
2023-01-27T16:08:36.789Z,20.1
2023-01-27T16:09:46.476Z,19.7
2023-01-27T16:10:54.533Z,20.6
2023-01-27T16:12:12.412Z,21.3
2023-01-27T16:13:27.801Z,22.3
2023-01-27T16:14:37.356Z,21
2023-01-27T16:15:44.786Z,21.3
2023-01-27T16:16:52.051Z,19.7
2023-01-27T16:17:59.372Z,20.4
2023-01-27T16:19:11.164Z,21.4
2023-01-27T16:20:17.716Z,21.9
2023-01-27T16:21:25.700Z,21.8
2023-01-27T16:22:42.070Z,28.8
2023-01-27T16:23:49.293Z,24.3
2023-01-27T16:24:56.520Z,21.9
2023-01-27T16:26:06.756Z,20.7
2023-01-27T16:27:17.949Z,16
2023-01-27T16:28:27.325Z,15.5
2023-01-27T16:29:36.585Z,15.7
2023-01-27T16:30:49.697Z,15.6
2023-01-27T16:32:02.079Z,16
2023-01-27T16:33:16.855Z,16.4
2023-01-27T16:34:34.757Z,15.3
2023-01-27T16:35:42.727Z,16.6
2023-01-27T16:36:49.702Z,15.6
2023-01-27T16:38:07.597Z,16.7
2023-01-27T16:39:23.886Z,15.9
2023-01-27T16:40:31.367Z,16.3
2023-01-27T16:41:39.311Z,17.8
2023-01-27T16:42:46.530Z,18.1
2023-01-27T16:43:56.433Z,17.7
2023-01-27T16:45:07.328Z,17.4
2023-01-27T16:46:19.486Z,18.1
2023-01-27T16:47:36.895Z,17
2023-01-27T16:48:44.158Z,19
2023-01-27T16:49:52.446Z,17.8
2023-01-27T16:50:59.794Z,18.4
2023-01-27T16:54:25.619Z,18.8
2023-01-27T16:55:33.013Z,19.7
2023-01-27T16:56:40.063Z,17.8
2023-01-27T16:57:47.207Z,18.2
2023-01-27T16:58:54.305Z,19.3
2023-01-27T17:00:04.093Z,19.3
2023-01-27T17:01:11.544Z,19.3
2023-01-27T17:02:28.937Z,19.3
2023-01-27T17:03:36.037Z,21.1
2023-01-27T17:04:43.106Z,18.9
2023-01-27T17:05:52.879Z,19.6
2023-01-27T17:07:00.067Z,21.1
2023-01-27T17:08:06.996Z,20.5
2023-01-27T17:09:22.418Z,23
2023-01-27T17:10:35.487Z,20.1
2023-01-27T17:11:41.678Z,20.6
2023-01-27T17:12:48.793Z,21.1
2023-01-27T17:13:55.962Z,21.8
2023-01-27T17:15:06.038Z,20.9
2023-01-27T17:16:23.618Z,24.2
2023-01-27T17:17:38.737Z,22.8
2023-01-27T17:18:52.492Z,22.1
2023-01-27T17:19:53.048Z,22.2
2023-01-27T17:21:05.110Z,21.8
2023-01-27T17:22:12.321Z,21.4
2023-01-27T17:23:24.468Z,23
2023-01-27T17:24:31.747Z,21.6
2023-01-27T17:25:41.478Z,22.2
2023-01-27T17:26:48.626Z,22.1
2023-01-27T17:28:06.182Z,23
2023-01-27T17:29:15.999Z,20.5
2023-01-27T17:30:23.176Z,19.9
2023-01-27T17:31:30.352Z,20.4
2023-01-27T17:32:37.562Z,20.4
2023-01-27T17:33:44.494Z,20.7
2023-01-27T17:34:51.662Z,20.4
2023-01-27T17:35:58.857Z,21.5
2023-01-27T17:37:10.950Z,20.9
2023-01-27T17:38:18.083Z,21.7
2023-01-27T17:39:28.440Z,21.9
2023-01-27T17:40:35.464Z,25.7
2023-01-27T17:41:42.682Z,22.9
2023-01-27T17:42:49.914Z,22.3
2023-01-27T17:43:57.026Z,21.9
2023-01-27T17:45:04.098Z,22.5
2023-01-27T17:46:21.403Z,23.6
2023-01-27T17:47:28.571Z,23.1
2023-01-27T17:48:35.824Z,26.9
2023-01-27T17:49:42.786Z,26.6
2023-01-27T17:50:49.857Z,25.6
2023-01-27T17:51:57.170Z,21.6
2023-01-27T17:53:04.241Z,21.6
2023-01-27T17:54:11.477Z,20.4
2023-01-27T17:55:27.076Z,19.7
2023-01-27T17:56:34.208Z,20.2
2023-01-27T17:57:41.385Z,20.7
2023-01-27T17:58:48.629Z,20.2
2023-01-27T17:59:58.286Z,19.1
2023-01-27T18:01:10.879Z,20.9
2023-01-27T18:02:18.135Z,20.7
2023-01-27T18:03:30.196Z,18.3
2023-01-27T18:04:37.415Z,19.1
2023-01-27T18:05:44.594Z,19.7
2023-01-27T18:06:51.636Z,19.9
2023-01-27T18:07:58.817Z,18.7
2023-01-27T18:09:05.841Z,19.2
2023-01-27T18:10:16.040Z,18.5
2023-01-27T18:11:28.360Z,19
2023-01-27T18:12:35.465Z,18.9
2023-01-27T18:13:42.584Z,19.3
2023-01-27T18:14:49.824Z,18.3
2023-01-27T18:15:56.975Z,19.6
2023-01-27T18:17:14.666Z,20.1
2023-01-27T18:18:24.245Z,20.5
2023-01-27T18:19:34.539Z,21.3
2023-01-27T18:20:41.664Z,20.5
2023-01-27T18:21:48.864Z,20.6
2023-01-27T18:23:06.543Z,21.2
2023-01-27T18:24:16.754Z,21
2023-01-27T18:25:23.884Z,19.4
2023-01-27T18:26:31.057Z,20.3
2023-01-27T18:27:41.519Z,19.7
2023-01-27T18:28:48.335Z,19.3
2023-01-27T18:30:03.390Z,19.9
2023-01-27T18:31:11.015Z,18.9
2023-01-27T18:32:23.862Z,19.4
2023-01-27T18:33:31.201Z,18.8
2023-01-27T18:34:38.305Z,20
2023-01-27T18:35:48.563Z,20
2023-01-27T18:36:58.783Z,19.2
2023-01-27T18:38:08.833Z,18
2023-01-27T18:39:21.117Z,19.6
2023-01-27T18:40:33.337Z,19.3
2023-01-27T18:41:40.704Z,19.8
2023-01-27T18:42:50.165Z,18.7
2023-01-27T18:43:57.332Z,19.3
2023-01-27T18:45:04.438Z,19.1
2023-01-27T18:46:11.591Z,19.3
2023-01-27T18:47:18.771Z,20
2023-01-27T18:48:31.844Z,19.4
2023-01-27T18:49:39.131Z,20
2023-01-27T18:50:46.220Z,20.6
2023-01-27T18:51:53.291Z,19.9
2023-01-27T18:53:00.544Z,21.5
2023-01-27T18:54:07.936Z,21
2023-01-27T18:55:15.677Z,20.4
2023-01-27T18:56:22.708Z,21.4
2023-01-27T18:57:29.995Z,20.1
2023-01-27T18:58:37.208Z,21.1
2023-01-27T18:59:44.277Z,23.4
2023-01-27T19:00:51.383Z,21.7
2023-01-27T19:01:58.600Z,21.9
2023-01-27T19:03:05.747Z,20.6
2023-01-27T19:04:12.731Z,21.4
2023-01-27T19:05:19.944Z,21.1
2023-01-27T19:06:27.135Z,23.3
2023-01-27T19:07:34.070Z,23.7
2023-01-27T19:08:41.312Z,23.1
2023-01-27T19:09:48.421Z,23.1
2023-01-27T19:10:55.659Z,21.9
2023-01-27T19:12:02.772Z,21.9
2023-01-27T19:13:09.707Z,22.5
2023-01-27T19:14:16.886Z,22.7
2023-01-27T19:15:24.169Z,22.7
2023-01-27T19:16:31.248Z,23.8
2023-01-27T19:17:38.254Z,24.4
2023-01-27T19:18:45.371Z,23.9
2023-01-27T19:19:52.565Z,24.6
2023-01-27T19:20:59.672Z,29.4
2023-01-27T19:22:06.690Z,31.9
2023-01-27T19:23:16.410Z,24
2023-01-27T19:24:23.654Z,22.9
2023-01-27T19:25:30.670Z,22.6
2023-01-27T19:26:37.790Z,20.4
2023-01-27T19:27:44.996Z,22
2023-01-27T19:28:54.579Z,23.6
2023-01-27T19:30:01.748Z,22.5
2023-01-27T19:31:19.042Z,22.4
2023-01-27T19:32:26.172Z,22.7
2023-01-27T19:33:33.159Z,21.8
2023-01-27T19:34:40.332Z,22.6
2023-01-27T19:35:47.427Z,21.9
2023-01-27T19:37:00.726Z,23.4
2023-01-27T19:38:07.864Z,22.6
2023-01-27T19:39:14.969Z,22.3
2023-01-27T19:40:22.124Z,21.9
2023-01-27T19:41:29.261Z,24
2023-01-27T19:42:36.368Z,22.8
2023-01-27T19:43:50.654Z,22.5
2023-01-27T19:44:57.795Z,22.9
2023-01-27T19:46:04.916Z,22.4
2023-01-27T19:47:14.533Z,23.6
2023-01-27T19:48:21.626Z,23.6
2023-01-27T19:49:28.792Z,22
2023-01-27T19:50:35.923Z,21.8
2023-01-27T19:51:43.143Z,22.3
2023-01-27T19:52:50.337Z,23.2
2023-01-27T19:53:57.412Z,22
2023-01-27T19:55:04.508Z,22.7
2023-01-27T19:56:12.149Z,24.7
2023-01-27T19:57:21.799Z,22.9
2023-01-27T19:58:28.945Z,24.4
2023-01-27T19:59:36.115Z,25.1
2023-01-27T20:00:43.279Z,23.8
2023-01-27T20:01:50.415Z,24
2023-01-27T20:02:57.409Z,25
2023-01-27T20:04:04.735Z,25.4
2023-01-27T20:05:11.743Z,24.9
2023-01-27T20:06:18.792Z,22.4
2023-01-27T20:07:25.859Z,22.8
2023-01-27T20:08:33.039Z,23.6
2023-01-27T20:09:40.207Z,21.7
2023-01-27T20:10:47.314Z,20.5
2023-01-27T20:11:54.511Z,22.7
2023-01-27T20:13:01.722Z,21.9
2023-01-27T20:14:09.115Z,20
2023-01-27T20:15:16.805Z,21.1
2023-01-27T20:16:23.397Z,21
2023-01-27T20:17:30.642Z,22.4
2023-01-27T20:18:39.356Z,20.3
2023-01-27T20:19:46.558Z,23.7
2023-01-27T20:20:54.414Z,21.7
2023-01-27T20:22:01.850Z,21
2023-01-27T20:23:10.876Z,19.9
2023-01-27T20:24:20.802Z,21.5
2023-01-27T20:25:29.107Z,22.1
2023-01-27T20:26:36.198Z,19.6
2023-01-27T20:27:43.464Z,22.3
2023-01-27T20:28:50.587Z,19.6
2023-01-27T20:29:58.478Z,18.7
2023-01-27T20:31:05.819Z,18.1
2023-01-27T20:32:12.895Z,19.1
2023-01-27T20:33:20.387Z,18.6
2023-01-27T20:34:29.541Z,17.7
2023-01-27T20:35:37.998Z,18.2
2023-01-27T20:36:45.232Z,17.8
2023-01-27T20:37:53.248Z,17.7
2023-01-27T20:39:00.490Z,17
2023-01-27T20:40:09.306Z,18.8
2023-01-27T20:41:16.617Z,21.2
2023-01-27T20:42:23.755Z,18.1
2023-01-27T20:43:35.815Z,18.7
2023-01-27T20:44:39.246Z,17.7
2023-01-27T20:45:47.105Z,19.7
2023-01-27T20:46:55.323Z,18.9
2023-01-27T20:48:02.822Z,18
2023-01-27T20:49:10.456Z,17.6
2023-01-27T20:50:17.743Z,17
2023-01-27T20:51:24.932Z,17.6
2023-01-27T20:52:33.599Z,18.1
2023-01-27T20:53:40.886Z,18.7
2023-01-27T20:54:51.831Z,16.9
2023-01-27T20:56:00.781Z,16.9
2023-01-27T20:57:08.687Z,17.7
2023-01-27T20:58:15.742Z,16.9
2023-01-27T20:59:22.896Z,17.8
2023-01-27T21:00:29.974Z,16.9
2023-01-27T21:01:37.094Z,17.7
2023-01-27T21:02:44.260Z,18.2
2023-01-27T21:03:51.731Z,18.8
2023-01-27T21:04:59.026Z,19.3
2023-01-27T21:06:07.087Z,18.2
2023-01-27T21:07:15.270Z,18.5
2023-01-27T21:08:22.510Z,17.5
2023-01-27T21:09:29.662Z,18.9
2023-01-27T21:10:37.127Z,18.1
2023-01-27T21:11:44.802Z,17.8
2023-01-27T21:12:52.409Z,17.8
2023-01-27T21:13:59.688Z,19
2023-01-27T21:15:06.962Z,17.9
2023-01-27T21:16:14.250Z,18.2
2023-01-27T21:17:21.045Z,19.4
2023-01-27T21:18:29.084Z,19.8
2023-01-27T21:19:36.390Z,19.3
2023-01-27T21:20:43.646Z,19.5
2023-01-27T21:21:54.718Z,20.9
2023-01-27T21:23:02.244Z,21.1
2023-01-27T21:24:09.656Z,20.3
2023-01-27T21:25:17.553Z,18.6
2023-01-27T21:26:26.063Z,18.5
2023-01-27T21:27:33.996Z,19
2023-01-27T21:28:42.423Z,19.2
2023-01-27T21:29:49.718Z,20
2023-01-27T21:30:58.643Z,20.2
2023-01-27T21:32:11.610Z,20.2
2023-01-27T21:33:20.566Z,17.9
2023-01-27T21:34:29.098Z,19.5
2023-01-27T21:35:36.210Z,20.3
2023-01-27T21:36:43.202Z,21.3
2023-01-27T21:37:50.361Z,19.7
2023-01-27T21:38:57.700Z,21
2023-01-27T21:40:06.805Z,19.9
2023-01-27T21:41:16.210Z,21
2023-01-27T21:42:28.587Z,21.3
2023-01-27T21:43:40.925Z,21.5
2023-01-27T21:44:53.154Z,21.5
2023-01-27T21:46:05.473Z,20
2023-01-27T21:47:13.540Z,21.2
2023-01-27T21:48:22.818Z,21.2
2023-01-27T21:49:30.258Z,19.3
2023-01-27T21:50:37.368Z,19.5
2023-01-27T21:51:45.371Z,20.5
2023-01-27T21:52:53.680Z,19.7
2023-01-27T21:54:00.752Z,20.3
2023-01-27T21:55:08.227Z,23.3
2023-01-27T21:56:20.573Z,20.2
2023-01-27T21:57:28.837Z,20.9
2023-01-27T21:58:36.013Z,22.1
2023-01-27T21:59:43.425Z,24.4
2023-01-27T22:00:51.690Z,22.6
2023-01-27T22:01:59.043Z,24.6
2023-01-27T22:03:07.854Z,22.7
2023-01-27T22:04:16.021Z,24.9
2023-01-27T22:05:23.471Z,23.9
2023-01-27T22:06:30.353Z,22
2023-01-27T22:07:37.647Z,20.7
2023-01-27T22:08:44.954Z,20.7
2023-01-27T22:09:56.270Z,21.2
2023-01-27T22:11:03.973Z,20.5
2023-01-27T22:12:13.011Z,22.2
2023-01-27T22:13:21.722Z,22.5
2023-01-27T22:14:29.926Z,22.7
2023-01-27T22:15:37.542Z,22.9
2023-01-27T22:16:44.806Z,23.8
2023-01-27T22:17:52.971Z,24.5
2023-01-27T22:19:00.134Z,22.6
2023-01-27T22:20:07.269Z,24.6
2023-01-27T22:21:15.063Z,24.3
2023-01-27T22:22:22.202Z,24.5
2023-01-27T22:23:29.647Z,24.2
2023-01-27T22:24:37.645Z,23.4
2023-01-27T22:25:45.114Z,24
2023-01-27T22:26:52.241Z,23.9
2023-01-27T22:27:59.715Z,23.8
2023-01-27T22:29:08.387Z,23.4
2023-01-27T22:30:18.384Z,23.4
2023-01-27T22:31:25.758Z,23.3
2023-01-27T22:32:33.859Z,23.8
2023-01-27T22:33:41.014Z,24.3
2023-01-27T22:34:48.349Z,25.1
2023-01-27T22:35:56.655Z,24.8
2023-01-27T22:37:06.493Z,23.6
2023-01-27T22:38:14.844Z,23.8
2023-01-27T22:39:22.671Z,23.8
2023-01-27T22:40:29.910Z,25.8
2023-01-27T22:41:37.485Z,24.1
2023-01-27T22:42:45.730Z,24.4
2023-01-27T22:43:52.890Z,24.5
2023-01-27T22:45:01.010Z,23.2
2023-01-27T22:46:08.212Z,24.4
2023-01-27T22:47:16.957Z,24.1
2023-01-27T22:48:24.097Z,23.7
2023-01-27T22:49:31.333Z,24.7
2023-01-27T22:50:38.608Z,24.1
2023-01-27T22:51:47.795Z,24
2023-01-27T22:52:53.851Z,24.9
2023-01-27T22:54:01.250Z,25.2
2023-01-27T22:55:10.249Z,25.3
2023-01-27T22:56:17.603Z,25.3
2023-01-27T22:57:25.169Z,25.5
2023-01-27T22:58:32.053Z,24.2
2023-01-27T22:59:39.814Z,25.6
2023-01-27T23:00:46.842Z,24.7
2023-01-27T23:01:55.593Z,24.7
2023-01-27T23:03:03.290Z,25
2023-01-27T23:04:11.407Z,24.8
2023-01-27T23:05:18.691Z,24
2023-01-27T23:06:25.689Z,25.4
2023-01-27T23:07:32.880Z,25.1
2023-01-27T23:08:39.885Z,23.1
2023-01-27T23:09:47.155Z,23.9
2023-01-27T23:10:54.729Z,25
2023-01-27T23:12:04.578Z,25.4
2023-01-27T23:13:13.441Z,25.4
2023-01-27T23:14:21.913Z,24.2
2023-01-27T23:15:30.439Z,25.1
2023-01-27T23:16:37.405Z,24.4
2023-01-27T23:17:45.566Z,23.1
2023-01-27T23:18:53.386Z,24.2
2023-01-27T23:20:01.666Z,25.3
2023-01-27T23:21:08.948Z,24.2
2023-01-27T23:22:16.678Z,24
2023-01-27T23:23:24.962Z,24.4
2023-01-27T23:24:32.154Z,24
2023-01-27T23:25:39.186Z,23.5
2023-01-27T23:26:46.357Z,23
2023-01-27T23:27:55.065Z,22.3
2023-01-27T23:29:03.213Z,22.7
2023-01-27T23:30:10.035Z,23.9
2023-01-27T23:31:17.524Z,23.7
2023-01-27T23:32:25.707Z,23.6
2023-01-27T23:33:33.607Z,23.6
2023-01-27T23:34:41.902Z,23.3
2023-01-27T23:35:48.777Z,24
2023-01-27T23:37:01.632Z,21.6
2023-01-27T23:38:19.493Z,21.7
2023-01-27T23:39:16.549Z,20.8
2023-01-27T23:40:24.801Z,22.8
2023-01-27T23:41:32.910Z,22.3
2023-01-27T23:42:40.845Z,24.1
2023-01-27T23:43:48.554Z,22.7
2023-01-27T23:44:57.117Z,24.4
2023-01-27T23:46:04.334Z,23.1
2023-01-27T23:47:11.850Z,22.6
2023-01-27T23:48:19.026Z,23.6
2023-01-27T23:49:26.945Z,23.5
2023-01-27T23:50:34.299Z,22.9
2023-01-27T23:51:42.562Z,23.2
2023-01-27T23:52:50.722Z,22.4
2023-01-27T23:53:59.778Z,21.9
2023-01-27T23:55:06.951Z,21.9
2023-01-27T23:56:13.974Z,21
2023-01-27T23:57:22.119Z,22.5
2023-01-27T23:58:29.646Z,22.5
2023-01-27T23:59:37.953Z,21.6
